Time;durP1;ratioP1;P1;durP2;ratioP2;P2;SDS_P1;SDS_P2;PMS_P1;PMS_P2;Temp;Humidity;BMP_temperature;BMP_pressure;BME280_temperature;BME280_humidity;BME280_pressure;Samples;Min_cycle;Max_cycle;Signal;HPM_P1;HPM_P2
2022/09/23 00:00:36;;;;;;;8.70;5.55;;;;;;;11.53;61.94;93047.88;5062115;28;20044;-75
2022/09/23 00:03:02;;;;;;;8.65;5.53;;;;;;;11.50;62.48;93049.19;5032932;28;20122;-75
2022/09/23 00:05:29;;;;;;;10.13;5.40;;;;;;;11.49;62.33;93046.88;5049187;28;20468;-75
2022/09/23 00:07:56;;;;;;;10.73;5.53;;;;;;;11.46;62.26;93049.00;5050205;28;20709;-75
2022/09/23 00:10:23;;;;;;;13.75;6.05;;;;;;;11.48;61.86;93055.78;5066919;28;20035;-75
2022/09/23 00:12:49;;;;;;;10.43;5.70;;;;;;;11.45;61.86;93052.66;5048438;28;20452;-74
2022/09/23 00:15:15;;;;;;;9.85;5.57;;;;;;;11.44;61.72;93051.09;5048780;28;20044;-75
2022/09/23 00:17:41;;;;;;;15.20;6.10;;;;;;;11.46;61.20;93053.47;5047369;28;20111;-75
2022/09/23 00:20:08;;;;;;;11.05;6.15;;;;;;;11.46;60.77;93050.84;5048557;28;20087;-75
2022/09/23 00:22:37;;;;;;;11.50;5.88;;;;;;;11.61;58.75;93042.78;5049505;28;20064;-75
2022/09/23 00:25:07;;;;;;;11.43;6.43;;;;;;;11.54;59.57;93039.72;5068473;28;20057;-75
2022/09/23 00:27:33;;;;;;;8.82;5.97;;;;;;;11.51;62.27;93050.00;5052225;28;20064;-75
2022/09/23 00:29:59;;;;;;;8.32;5.57;;;;;;;11.45;62.89;93052.66;5068523;28;20025;-75
2022/09/23 00:32:25;;;;;;;8.85;5.80;;;;;;;11.41;63.28;93045.63;5042947;28;20033;-75
2022/09/23 00:34:51;;;;;;;9.40;5.70;;;;;;;11.38;63.54;93041.72;5048400;28;20081;-75
2022/09/23 00:37:18;;;;;;;10.13;6.32;;;;;;;11.34;63.90;93040.72;5049006;28;20495;-75
2022/09/23 00:39:44;;;;;;;11.10;5.70;;;;;;;11.30;63.75;93042.31;5049680;28;20037;-75
2022/09/23 00:42:19;;;;;;;9.30;5.70;;;;;;;11.27;63.88;93035.00;5048785;28;20621;-74
2022/09/23 00:44:56;;;;;;;11.05;5.63;;;;;;;11.26;63.73;93036.09;5049485;28;20483;-74
2022/09/23 00:48:00;;;;;;;8.77;5.78;;;;;;;11.23;63.95;93026.91;5049536;28;20075;-75
2022/09/23 00:50:44;;;;;;;10.38;5.93;;;;;;;11.21;63.63;93029.06;5007008;28;20032;-75
2022/09/23 00:53:12;;;;;;;9.43;5.03;;;;;;;11.22;63.73;93027.97;5046592;28;20048;-75
2022/09/23 00:55:45;;;;;;;9.88;5.78;;;;;;;11.24;63.48;93027.72;5049078;28;20045;-75
2022/09/23 00:58:14;;;;;;;8.70;5.45;;;;;;;11.24;63.64;93032.94;5033611;28;20064;-75
2022/09/23 01:00:41;;;;;;;11.18;6.13;;;;;;;11.23;63.50;93023.50;5053233;28;20028;-75
2022/09/23 01:03:08;;;;;;;9.73;5.75;;;;;;;11.21;63.98;93026.44;5018406;28;20462;-75
2022/09/23 01:05:35;;;;;;;8.98;5.38;;;;;;;11.18;65.05;93019.09;5053241;28;20127;-75
2022/09/23 01:08:03;;;;;;;8.35;5.63;;;;;;;11.18;64.98;93015.69;5051469;28;20033;-75
2022/09/23 01:11:05;;;;;;;8.02;5.45;;;;;;;11.15;64.83;93017.03;5035190;28;20332;-74
2022/09/23 01:13:31;;;;;;;10.85;5.45;;;;;;;11.16;65.01;93015.19;5043316;28;20025;-75
2022/09/23 01:16:05;;;;;;;10.48;5.40;;;;;;;11.13;65.16;93013.13;5051522;28;20048;-74
2022/09/23 01:18:55;;;;;;;8.00;5.55;;;;;;;11.12;65.65;93016.81;5052823;28;20029;-75
2022/09/23 01:21:38;;;;;;;11.57;5.53;;;;;;;11.12;65.65;93012.34;5051779;28;20041;-75
2022/09/23 01:24:14;;;;;;;8.13;5.30;;;;;;;11.10;65.82;93008.44;5052455;28;20036;-75
2022/09/23 01:26:55;;;;;;;9.40;5.55;;;;;;;11.06;65.81;93007.44;5058496;28;20024;-75
2022/09/23 01:29:32;;;;;;;9.10;5.55;;;;;;;11.03;65.97;93003.50;5073107;28;20086;-75
2022/09/23 01:32:01;;;;;;;8.95;6.03;;;;;;;11.03;65.91;93012.19;5072016;28;20102;-75
2022/09/23 01:34:48;;;;;;;9.77;5.60;;;;;;;11.01;65.83;93003.00;5055296;28;20351;-75
2022/09/23 01:37:30;;;;;;;10.57;5.93;;;;;;;11.01;65.31;93009.03;5031490;28;20487;-75
2022/09/23 01:39:56;;;;;;;10.23;5.70;;;;;;;11.02;65.16;93002.75;5031175;28;20495;-75
2022/09/23 01:42:40;;;;;;;8.15;5.47;;;;;;;11.03;65.01;93006.94;5063769;28;20054;-75
2022/09/23 01:45:16;;;;;;;8.68;5.78;;;;;;;11.02;64.74;93002.75;5066280;28;20515;-75
2022/09/23 01:48:12;;;;;;;11.55;5.75;;;;;;;11.00;64.50;93004.84;5050896;28;20037;-75
2022/09/23 01:50:57;;;;;;;8.05;5.30;;;;;;;11.03;64.41;93004.31;5051919;28;20029;-75
2022/09/23 01:53:22;;;;;;;10.77;5.68;;;;;;;11.02;63.75;93002.75;5052297;28;20376;-75
2022/09/23 01:55:55;;;;;;;9.65;5.60;;;;;;;11.02;63.72;93002.75;5036432;28;20110;-74
2022/09/23 01:58:27;;;;;;;10.23;5.53;;;;;;;11.01;63.07;92998.56;5064457;28;20032;-75
2022/09/23 02:01:06;;;;;;;9.27;5.77;;;;;;;11.01;63.07;92993.31;5071965;28;20140;-74
2022/09/23 02:03:55;;;;;;;9.48;5.75;;;;;;;11.00;63.23;92989.13;5054199;28;20371;-74
2022/09/23 02:06:26;;;;;;;10.63;5.45;;;;;;;11.04;62.64;92992.78;5038273;28;20413;-75
2022/09/23 02:09:14;;;;;;;10.65;5.32;;;;;;;11.07;61.70;92982.78;5049599;28;20090;-75
2022/09/23 02:11:44;;;;;;;11.05;5.72;;;;;;;11.04;61.50;92984.91;5076472;28;20168;-75
2022/09/23 02:14:25;;;;;;;9.57;5.57;;;;;;;11.01;61.80;92980.22;5049746;28;20087;-75
2022/09/23 02:16:54;;;;;;;13.90;5.50;;;;;;;11.01;61.30;92985.47;5047574;28;20037;-75
2022/09/23 02:19:29;;;;;;;10.27;5.50;;;;;;;11.01;61.50;92990.72;5056047;28;20031;-75
2022/09/23 02:22:14;;;;;;;13.25;5.55;;;;;;;11.00;61.93;92986.50;5070111;28;20402;-75
2022/09/23 02:24:40;;;;;;;9.68;5.78;;;;;;;10.99;62.63;92984.19;5070429;28;20478;-75
2022/09/23 02:27:11;;;;;;;10.45;5.53;;;;;;;11.00;62.28;92983.88;5063099;28;20540;-75
2022/09/23 02:29:49;;;;;;;11.32;5.80;;;;;;;11.00;61.87;92989.13;5050216;28;20416;-75
2022/09/23 02:32:40;;;;;;;9.85;5.70;;;;;;;11.01;61.62;92984.66;5067164;28;20040;-75
2022/09/23 02:35:24;;;;;;;11.70;5.22;;;;;;;11.00;62.04;92983.13;5047606;28;20033;-74
2022/09/23 02:38:20;;;;;;;8.45;5.63;;;;;;;10.98;63.16;92980.75;5060616;28;20047;-75
2022/09/23 02:40:52;;;;;;;9.35;5.35;;;;;;;10.97;62.83;92979.22;5046980;28;20453;-75
2022/09/23 02:43:34;;;;;;;10.60;5.80;;;;;;;10.95;63.48;92978.72;5069986;28;20051;-75
2022/09/23 02:46:04;;;;;;;11.10;5.63;;;;;;;10.93;63.11;92970.34;5069840;28;20524;-75
2022/09/23 02:48:40;;;;;;;13.95;5.28;;;;;;;10.93;64.05;92975.56;5060541;28;20040;-75
2022/09/23 02:51:06;;;;;;;8.57;5.53;;;;;;;10.91;64.18;92969.84;5068286;28;20037;-75
2022/09/23 02:53:32;;;;;;;8.80;5.05;;;;;;;10.90;64.52;92980.56;5052981;28;20028;-75
2022/09/23 02:55:59;;;;;;;11.07;5.68;;;;;;;10.90;64.84;92978.75;5069756;28;20371;-74
2022/09/23 02:58:25;;;;;;;9.50;5.82;;;;;;;10.87;64.79;92968.03;5064017;28;20111;-74
2022/09/23 03:01:30;;;;;;;8.65;5.35;;;;;;;10.87;64.75;92968.03;5056171;28;20108;-75
2022/09/23 03:04:14;;;;;;;10.02;6.03;;;;;;;10.86;64.18;92962.03;5068016;28;20090;-75
2022/09/23 03:07:09;;;;;;;9.23;5.70;;;;;;;10.86;65.18;92959.41;5050892;28;20025;-75
2022/09/23 03:09:57;;;;;;;10.55;5.47;;;;;;;10.83;66.04;92963.38;5050750;28;20087;-75
2022/09/23 03:12:47;;;;;;;10.80;5.43;;;;;;;10.80;66.99;92958.66;5050578;28;20045;-75
2022/09/23 03:15:20;;;;;;;10.48;5.28;;;;;;;10.79;67.31;92956.34;5050479;28;20056;-75
2022/09/23 03:18:04;;;;;;;9.00;5.70;;;;;;;10.77;67.40;92955.81;5066485;28;20106;-74
2022/09/23 03:20:41;;;;;;;8.95;5.40;;;;;;;10.75;67.17;92956.09;5063639;28;20068;-75
2022/09/23 03:23:12;;;;;;;10.23;6.10;;;;;;;10.73;67.30;92952.97;5070445;28;20048;-75
2022/09/23 03:25:43;;;;;;;9.00;5.97;;;;;;;10.72;67.39;92961.13;5070626;28;20036;-74
2022/09/23 03:28:10;;;;;;;10.10;5.88;;;;;;;10.72;67.53;92966.34;5070180;28;20063;-75
2022/09/23 03:30:38;;;;;;;12.88;5.93;;;;;;;10.71;67.77;92959.53;5057711;28;20033;-74
2022/09/23 03:33:08;;;;;;;9.90;6.28;;;;;;;10.68;67.80;92955.63;5050456;28;20060;-75
2022/09/23 03:36:48;;;;;;;9.05;5.45;;;;;;;10.66;67.69;92957.75;5054552;28;20398;-75
2022/09/23 03:38:25;;;;;;;12.98;5.80;;;;;;;10.65;68.40;92958.00;5042624;28;20033;-73
2022/09/23 03:40:54;;;;;;;9.55;5.43;;;;;;;10.66;68.18;92952.50;5066351;28;20436;-75
2022/09/23 03:43:20;;;;;;;12.45;6.07;;;;;;;10.64;68.65;92954.63;5068861;28;20142;-75
2022/09/23 03:45:46;;;;;;;11.07;6.50;;;;;;;10.63;69.27;92959.06;5063029;28;20143;-75
2022/09/23 03:48:15;;;;;;;11.32;6.00;;;;;;;10.61;68.55;92955.94;5069862;28;20051;-75
2022/09/23 03:50:40;;;;;;;9.30;5.80;;;;;;;10.61;70.00;92955.16;5062991;28;20407;-75
2022/09/23 03:53:06;;;;;;;13.15;5.95;;;;;;;10.62;69.51;92956.72;5041821;28;20048;-75
2022/09/23 03:55:33;;;;;;;14.45;5.93;;;;;;;10.60;70.40;92959.63;5048880;28;20064;-75
2022/09/23 03:57:59;;;;;;;11.40;6.18;;;;;;;10.58;69.97;92951.28;5049793;28;20082;-75
2022/09/23 04:00:25;;;;;;;8.70;5.85;;;;;;;10.56;70.12;92953.38;5052787;28;20120;-74
2022/09/23 04:02:51;;;;;;;11.05;6.50;;;;;;;10.52;70.86;92947.13;5059574;28;20036;-74
2022/09/23 04:05:17;;;;;;;10.52;5.90;;;;;;;10.53;70.50;92943.44;5065641;28;20445;-74
2022/09/23 04:07:42;;;;;;;11.68;6.35;;;;;;;10.53;70.52;92940.03;5069607;28;20040;-74
2022/09/23 04:10:09;;;;;;;16.35;6.30;;;;;;;10.53;71.08;92938.19;5068081;28;20028;-75
2022/09/23 04:12:34;;;;;;;15.00;6.10;;;;;;;10.53;70.84;92937.44;5064907;28;20032;-75
2022/09/23 04:15:00;;;;;;;11.23;6.93;;;;;;;10.49;70.86;92931.97;5060020;28;20040;-75
2022/09/23 04:17:26;;;;;;;10.13;6.22;;;;;;;10.48;71.26;92929.63;5067077;28;20095;-75
2022/09/23 04:19:51;;;;;;;9.55;6.25;;;;;;;10.50;71.52;92933.53;5049091;28;20040;-74
2022/09/23 04:22:17;;;;;;;10.95;6.28;;;;;;;10.48;71.75;92929.63;5038937;28;20041;-75
2022/09/23 04:24:42;;;;;;;10.23;6.20;;;;;;;10.46;71.78;92921.25;5041188;28;20036;-75
2022/09/23 04:27:08;;;;;;;10.80;6.20;;;;;;;10.46;71.58;92939.59;5048142;28;20126;-75
2022/09/23 04:29:34;;;;;;;17.38;6.55;;;;;;;10.44;74.00;92929.38;5048072;28;20063;-76
2022/09/23 04:31:59;;;;;;;17.15;6.70;;;;;;;10.43;73.58;92927.06;5062962;28;20045;-75
2022/09/23 04:34:25;;;;;;;11.20;6.70;;;;;;;10.41;74.14;92935.94;5033846;28;20029;-75
2022/09/23 04:36:50;;;;;;;12.07;6.55;;;;;;;10.38;73.62;92935.69;5061862;28;20040;-75
2022/09/23 04:39:17;;;;;;;14.32;6.55;;;;;;;10.35;73.95;92937.03;5052975;28;20037;-75
2022/09/23 04:41:43;;;;;;;12.05;6.38;;;;;;;10.33;73.98;92933.13;5051917;28;20517;-74
2022/09/23 04:44:11;;;;;;;12.18;6.15;;;;;;;10.32;74.45;92926.34;5047955;28;20060;-74
2022/09/23 04:46:37;;;;;;;12.65;6.68;;;;;;;10.31;74.34;92933.41;5015625;28;20087;-74
2022/09/23 04:49:04;;;;;;;9.63;6.30;;;;;;;10.29;75.19;92932.09;5046801;28;20090;-75
2022/09/23 04:51:30;;;;;;;11.38;6.53;;;;;;;10.27;75.04;92940.22;5050238;28;20037;-75
2022/09/23 04:53:56;;;;;;;9.82;5.95;;;;;;;10.26;75.04;92933.41;5065537;28;20494;-75
2022/09/23 04:56:24;;;;;;;14.38;6.63;;;;;;;10.28;76.05;92936.53;5060626;28;20501;-75
2022/09/23 04:58:50;;;;;;;13.90;6.30;;;;;;;10.28;76.89;92938.38;5055905;28;20033;-77
2022/09/23 05:01:25;;;;;;;12.13;6.65;;;;;;;10.23;76.92;92936.56;5046884;28;20039;-77
2022/09/23 05:04:01;;;;;;;12.07;6.72;;;;;;;10.21;76.71;92939.44;5053807;28;20367;-77
2022/09/23 05:06:28;;;;;;;12.15;7.78;;;;;;;10.20;76.63;92940.53;5049905;28;20071;-77
2022/09/23 05:08:56;;;;;;;10.88;6.47;;;;;;;10.21;75.71;92936.84;5065126;28;20759;-75
2022/09/23 05:11:23;;;;;;;12.07;7.13;;;;;;;10.20;75.52;92935.28;5048798;28;20033;-75
2022/09/23 05:13:51;;;;;;;16.90;7.65;;;;;;;10.17;75.11;92935.81;5050795;28;20532;-76
2022/09/23 05:16:17;;;;;;;10.80;7.00;;;;;;;10.16;75.90;92942.13;5035190;28;20025;-76
2022/09/23 05:18:44;;;;;;;12.73;7.20;;;;;;;10.17;75.87;92935.81;5050820;28;20102;-76
2022/09/23 05:21:12;;;;;;;14.70;7.05;;;;;;;10.17;75.84;92933.19;5049477;28;20453;-75
2022/09/23 05:23:39;;;;;;;16.90;6.93;;;;;;;10.18;75.84;92936.63;5042776;28;20086;-75
2022/09/23 05:26:07;;;;;;;11.90;6.63;;;;;;;10.19;76.15;92938.94;5039075;28;20550;-75
2022/09/23 05:28:36;;;;;;;11.20;6.60;;;;;;;10.21;76.52;92936.84;5050915;28;20029;-75
2022/09/23 05:31:11;;;;;;;12.07;7.18;;;;;;;10.21;76.39;92936.84;5051747;28;20046;-76
2022/09/23 05:33:36;;;;;;;12.38;7.28;;;;;;;10.21;76.64;92939.44;5050478;28;20041;-75
2022/09/23 05:36:03;;;;;;;12.35;6.90;;;;;;;10.21;76.77;92936.84;5052688;28;20089;-76
2022/09/23 05:38:30;;;;;;;10.43;6.35;;;;;;;10.25;76.65;92936.31;5033438;28;20453;-76
2022/09/23 05:41:04;;;;;;;16.45;6.95;;;;;;;10.25;76.58;92936.31;5051231;28;20040;-75
2022/09/23 05:43:31;;;;;;;13.80;6.95;;;;;;;10.27;76.51;92932.38;5047351;28;20060;-76
2022/09/23 05:46:05;;;;;;;16.27;7.53;;;;;;;10.28;76.61;92933.13;5064767;28;20025;-75
2022/09/23 05:48:33;;;;;;;10.00;6.45;;;;;;;10.28;77.21;92928.69;5067479;28;20491;-75
2022/09/23 05:51:00;;;;;;;12.95;6.85;;;;;;;10.28;77.00;92933.13;5051103;28;20495;-75
2022/09/23 05:53:28;;;;;;;11.30;6.50;;;;;;;10.30;78.00;92928.44;5070378;28;20024;-77
2022/09/23 05:55:55;;;;;;;14.93;7.20;;;;;;;10.31;78.22;92922.94;5053375;28;20045;-78
2022/09/23 05:58:22;;;;;;;11.98;6.60;;;;;;;10.33;78.37;92920.81;5052358;28;20499;-77
2022/09/23 06:00:48;;;;;;;10.68;6.38;;;;;;;10.37;77.92;92924.44;5051754;28;20055;-78
2022/09/23 06:03:15;;;;;;;12.30;7.72;;;;;;;10.42;77.52;92926.25;5051377;28;20045;-77
2022/09/23 06:05:41;;;;;;;10.88;6.35;;;;;;;10.47;77.59;92922.81;5051408;28;20510;-77
2022/09/23 06:08:08;;;;;;;9.82;6.43;;;;;;;10.51;76.95;92924.59;5051707;28;20056;-77
2022/09/23 06:10:41;;;;;;;11.93;6.88;;;;;;;10.54;76.73;92924.06;5053077;28;20487;-77
2022/09/23 06:13:08;;;;;;;11.75;6.68;;;;;;;10.56;76.89;92921.97;5051497;28;20079;-77
2022/09/23 06:15:35;;;;;;;11.30;6.78;;;;;;;10.59;77.02;92921.41;5053919;28;20032;-77
2022/09/23 06:18:00;;;;;;;13.68;6.85;;;;;;;10.64;77.19;92917.97;5064173;28;20037;-78
2022/09/23 06:20:26;;;;;;;15.15;6.47;;;;;;;10.67;76.94;92919.25;5051533;28;20040;-77
2022/09/23 06:22:52;;;;;;;11.27;6.22;;;;;;;10.72;76.71;92924.47;5051230;28;20324;-77
2022/09/23 06:25:19;;;;;;;15.00;6.78;;;;;;;10.77;76.17;92917.31;5051692;28;20390;-78
2022/09/23 06:27:54;;;;;;;14.75;7.05;;;;;;;10.84;76.69;92927.47;5054557;28;20029;-77
2022/09/23 06:30:22;;;;;;;15.15;6.55;;;;;;;10.89;75.88;92919.56;5068770;28;20419;-77
2022/09/23 06:32:51;;;;;;;16.88;6.97;;;;;;;10.92;76.15;92924.25;5052879;28;20029;-77
2022/09/23 06:35:26;;;;;;;12.30;6.55;;;;;;;10.91;75.77;92921.91;5051648;28;20040;-78
2022/09/23 06:37:53;;;;;;;10.48;6.60;;;;;;;10.96;73.75;92922.63;5052759;28;20550;-77
2022/09/23 06:40:21;;;;;;;12.20;6.45;;;;;;;10.98;74.01;92920.50;5034921;28;20075;-76
2022/09/23 06:42:47;;;;;;;10.73;6.57;;;;;;;11.03;74.76;92922.31;5051209;28;20037;-80
2022/09/23 06:45:13;;;;;;;12.05;6.55;;;;;;;11.04;73.78;92916.78;5052144;28;20491;-80
2022/09/23 06:47:40;;;;;;;10.88;6.53;;;;;;;11.12;73.19;92918.00;5052545;28;20535;-78
2022/09/23 06:50:06;;;;;;;12.55;7.00;;;;;;;11.19;71.54;92912.44;5052646;28;20040;-78
2022/09/23 06:52:33;;;;;;;14.55;6.63;;;;;;;11.25;69.59;92919.97;5050817;28;20051;-78
2022/09/23 06:54:59;;;;;;;12.70;6.80;;;;;;;11.37;68.28;92918.78;5050783;28;20053;-78
2022/09/23 06:57:28;;;;;;;13.57;7.07;;;;;;;11.40;68.80;92918.25;5052938;28;20083;-78
2022/09/23 06:59:54;;;;;;;11.27;6.70;;;;;;;11.40;68.07;92919.03;5052446;28;20403;-78
2022/09/23 07:02:19;;;;;;;14.95;6.72;;;;;;;11.40;68.36;92919.03;5033874;28;20028;-78
2022/09/23 07:04:45;;;;;;;10.85;5.85;;;;;;;11.46;69.82;92922.38;5051667;28;20041;-78
2022/09/23 07:07:12;;;;;;;11.90;6.35;;;;;;;11.42;68.35;92919.53;5057554;28;20028;-78
2022/09/23 07:09:38;;;;;;;9.70;6.43;;;;;;;11.55;68.01;92922.53;5055416;28;20040;-79
2022/09/23 07:12:04;;;;;;;10.02;6.50;;;;;;;11.51;68.24;92921.53;5050409;28;20047;-78
2022/09/23 07:14:29;;;;;;;10.30;6.45;;;;;;;11.49;68.41;92915.78;5047936;28;20037;-78
2022/09/23 07:16:55;;;;;;;14.60;6.82;;;;;;;11.53;68.53;92922.00;5051604;28;20056;-76
2022/09/23 07:19:21;;;;;;;12.63;6.97;;;;;;;11.61;67.23;92921.41;5030607;28;20042;-78
2022/09/23 07:21:46;;;;;;;12.45;7.30;;;;;;;11.65;67.38;92923.19;5048934;28;20047;-78
2022/09/23 07:24:12;;;;;;;12.02;7.13;;;;;;;11.67;67.63;92923.69;5053163;28;20041;-77
2022/09/23 07:26:38;;;;;;;9.43;6.13;;;;;;;11.82;69.59;92933.22;5051651;28;20087;-77
2022/09/23 07:29:03;;;;;;;12.93;6.22;;;;;;;11.72;69.19;92935.94;5053719;28;20047;-77
2022/09/23 07:31:34;;;;;;;14.43;6.60;;;;;;;11.77;69.10;92928.00;5052403;28;20033;-77
2022/09/23 07:34:00;;;;;;;11.25;6.53;;;;;;;11.84;68.46;92931.09;5050280;28;20031;-77
2022/09/23 07:36:27;;;;;;;9.30;6.38;;;;;;;11.80;68.48;92932.72;5050935;28;20029;-76
2022/09/23 07:38:59;;;;;;;12.20;6.35;;;;;;;11.87;69.64;92935.78;5050147;28;20131;-77
2022/09/23 07:41:27;;;;;;;13.35;6.85;;;;;;;11.86;68.98;92936.81;5051968;28;20037;-78
2022/09/23 07:43:58;;;;;;;9.15;6.28;;;;;;;11.94;68.80;92945.16;5051511;28;20474;-78
2022/09/23 07:46:27;;;;;;;11.85;6.80;;;;;;;11.92;69.61;92950.69;5049428;28;20047;-78
2022/09/23 07:48:53;;;;;;;12.98;6.43;;;;;;;11.93;69.59;92948.81;5054457;28;20431;-78
2022/09/23 07:51:22;;;;;;;12.10;6.05;;;;;;;11.93;69.35;92948.81;5053635;28;20029;-78
2022/09/23 07:53:53;;;;;;;8.68;5.72;;;;;;;12.09;68.91;92950.19;5049361;28;20375;-75
2022/09/23 07:56:21;;;;;;;9.15;5.82;;;;;;;12.18;69.33;92945.88;5064205;28;20395;-74
2022/09/23 07:58:58;;;;;;;11.48;6.53;;;;;;;12.22;64.68;92949.47;5048679;28;20051;-74
2022/09/23 08:01:32;;;;;;;9.18;6.43;;;;;;;12.16;63.02;92947.19;5050217;28;20033;-75
2022/09/23 08:04:01;;;;;;;11.90;6.45;;;;;;;12.32;66.45;92943.31;5049423;28;20033;-75
2022/09/23 08:06:27;;;;;;;10.93;5.68;;;;;;;12.49;67.45;92948.03;5050643;28;20509;-75
2022/09/23 08:08:55;;;;;;;11.95;6.45;;;;;;;12.63;66.38;92946.25;5052839;28;20059;-75
2022/09/23 08:11:22;;;;;;;12.40;7.05;;;;;;;12.83;64.58;92946.97;5053081;28;20045;-75
2022/09/23 08:13:48;;;;;;;10.25;5.55;;;;;;;12.94;66.98;92945.75;5035927;28;20025;-75
2022/09/23 08:16:13;;;;;;;8.45;5.00;;;;;;;13.22;67.78;92936.06;5018332;28;20598;-74
2022/09/23 08:18:42;;;;;;;9.60;5.28;;;;;;;13.18;67.34;92939.56;5052728;28;20090;-75
2022/09/23 08:21:07;;;;;;;8.77;5.20;;;;;;;13.17;68.91;92943.25;5036037;28;20051;-75
2022/09/23 08:23:33;;;;;;;16.38;5.60;;;;;;;13.04;70.19;92942.16;5035795;28;20045;-74
2022/09/23 08:26:01;;;;;;;8.80;5.07;;;;;;;13.13;71.19;92943.06;5052710;28;20051;-75
2022/09/23 08:28:27;;;;;;;12.07;5.03;;;;;;;13.10;69.97;92939.16;5053607;28;20403;-75
2022/09/23 08:30:52;;;;;;;7.30;4.25;;;;;;;13.31;68.71;92946.72;5052815;28;20021;-74
2022/09/23 08:33:18;;;;;;;9.73;5.28;;;;;;;13.16;68.79;92945.09;5052572;28;20069;-74
2022/09/23 08:35:44;;;;;;;9.10;5.72;;;;;;;13.23;67.90;92947.34;5053864;28;20052;-75
2022/09/23 08:38:09;;;;;;;9.90;5.40;;;;;;;13.23;69.18;92948.13;5053534;28;20495;-75
2022/09/23 08:40:38;;;;;;;7.85;5.45;;;;;;;13.20;67.65;92951.34;5052290;28;20029;-75
2022/09/23 08:43:14;;;;;;;12.95;5.40;;;;;;;13.53;67.93;92949.44;5035609;28;20323;-75
2022/09/23 08:45:41;;;;;;;10.32;5.70;;;;;;;13.54;66.87;92951.00;5052406;28;20089;-75
2022/09/23 08:48:15;;;;;;;11.98;5.13;;;;;;;13.63;66.67;92952.94;5053406;28;20072;-75
2022/09/23 08:50:47;;;;;;;9.15;5.85;;;;;;;13.65;65.46;92956.06;5049606;28;20098;-75
2022/09/23 08:53:25;;;;;;;11.43;6.10;;;;;;;13.95;67.35;92952.81;5053247;28;20494;-75
2022/09/23 08:55:54;;;;;;;10.38;5.70;;;;;;;13.88;65.87;92944.53;5052061;28;20037;-75
2022/09/23 08:58:43;;;;;;;12.00;5.85;;;;;;;14.28;62.76;92947.38;5053267;28;20495;-75
2022/09/23 09:01:25;;;;;;;10.35;5.13;;;;;;;14.58;63.82;92945.16;5052306;28;20082;-75
2022/09/23 09:04:03;;;;;;;9.30;5.03;;;;;;;15.00;62.93;92940.47;5052904;28;20037;-75
2022/09/23 09:06:34;;;;;;;8.05;4.20;;;;;;;15.05;61.36;92942.97;5035491;28;20256;-74
2022/09/23 09:09:03;;;;;;;11.98;5.15;;;;;;;15.40;62.47;92943.13;5051878;28;20033;-75
2022/09/23 09:11:39;;;;;;;8.38;4.43;;;;;;;15.34;61.42;92939.09;5052076;28;20048;-75
2022/09/23 09:14:14;;;;;;;8.75;4.88;;;;;;;15.15;59.38;92948.00;5051191;28;20033;-75
2022/09/23 09:16:49;;;;;;;12.10;5.28;;;;;;;15.26;60.92;92939.81;5051678;28;20379;-75
2022/09/23 09:19:55;;;;;;;9.32;5.22;;;;;;;14.89;59.23;92936.53;5052366;28;20032;-75
2022/09/23 09:22:28;;;;;;;12.43;4.63;;;;;;;15.01;60.23;92936.75;5040951;28;20056;-75
2022/09/23 09:25:01;;;;;;;8.90;4.68;;;;;;;15.17;58.70;92934.50;5034386;28;20048;-75
2022/09/23 09:27:27;;;;;;;9.13;5.50;;;;;;;14.96;59.65;92928.97;5052906;28;20041;-75
2022/09/23 09:29:54;;;;;;;9.35;5.40;;;;;;;15.31;57.47;92929.13;5044668;28;20055;-75
2022/09/23 09:32:47;;;;;;;10.93;5.43;;;;;;;15.13;58.25;92929.06;5070912;28;20035;-75
2022/09/23 09:35:53;;;;;;;7.43;5.10;;;;;;;15.00;58.71;92929.94;5053998;28;20037;-75
2022/09/23 09:38:20;;;;;;;9.32;6.05;;;;;;;14.84;57.95;92926.09;5052607;28;20059;-75
2022/09/23 09:40:47;;;;;;;10.30;4.95;;;;;;;14.70;59.14;92926.97;5051069;28;20100;-74
2022/09/23 09:43:22;;;;;;;8.82;5.72;;;;;;;14.40;59.47;92927.63;5051260;28;20045;-75
2022/09/23 09:45:53;;;;;;;8.27;5.47;;;;;;;14.23;60.63;92929.06;5055344;28;20041;-75
2022/09/23 09:48:26;;;;;;;9.60;5.85;;;;;;;14.33;60.27;92923.56;5051608;28;20646;-75
2022/09/23 09:50:54;;;;;;;11.30;5.07;;;;;;;14.34;59.79;92922.50;5067395;28;20116;-75
2022/09/23 09:53:34;;;;;;;9.45;5.60;;;;;;;13.98;61.10;92927.75;5052107;28;20124;-75
2022/09/23 09:56:04;;;;;;;9.85;6.22;;;;;;;14.12;59.53;92927.72;5067005;28;20537;-75
2022/09/23 09:58:42;;;;;;;13.98;6.75;;;;;;;14.12;59.77;92923.25;5033969;28;20036;-76
2022/09/23 10:01:18;;;;;;;15.23;5.82;;;;;;;14.26;61.34;92925.06;5050605;28;20111;-75
2022/09/23 10:03:44;;;;;;;13.98;6.05;;;;;;;14.26;61.00;92925.84;5033805;28;20457;-74
2022/09/23 10:06:28;;;;;;;9.05;5.82;;;;;;;14.17;60.38;92930.25;5051572;28;20032;-75
2022/09/23 10:09:18;;;;;;;10.38;5.82;;;;;;;14.26;61.10;92923.19;5033633;28;20124;-74
2022/09/23 10:12:03;;;;;;;9.35;6.05;;;;;;;14.37;61.92;92923.75;5050377;28;20067;-75
2022/09/23 10:14:29;;;;;;;10.02;5.70;;;;;;;14.41;59.56;92934.44;5050809;28;20072;-75
2022/09/23 10:17:05;;;;;;;13.10;6.47;;;;;;;14.45;60.42;92922.25;5049935;28;20029;-74
2022/09/23 10:19:34;;;;;;;9.77;5.65;;;;;;;14.32;60.53;92922.00;5033963;28;20029;-74
2022/09/23 10:22:16;;;;;;;9.15;4.80;;;;;;;14.48;61.27;92924.31;5034505;28;20037;-75
2022/09/23 10:24:48;;;;;;;8.88;6.35;;;;;;;14.20;60.79;92929.66;5052995;28;20123;-74
2022/09/23 10:27:14;;;;;;;9.10;6.40;;;;;;;13.92;61.80;92932.34;5049504;28;20036;-75
2022/09/23 10:29:49;;;;;;;14.10;6.32;;;;;;;14.12;62.81;92933.00;5049656;28;20040;-75
2022/09/23 10:32:27;;;;;;;10.88;6.07;;;;;;;14.33;61.99;92928.06;5050462;28;20092;-75
2022/09/23 10:34:57;;;;;;;11.93;6.55;;;;;;;14.58;61.26;92924.06;5033431;28;20090;-74
2022/09/23 10:37:29;;;;;;;9.02;5.70;;;;;;;14.73;59.63;92918.44;5051152;28;20395;-75
2022/09/23 10:46:44;;;;;;;8.65;6.30;;;;;;;15.09;59.50;92916.78;5050332;28;20477;-75
2022/09/23 10:49:19;;;;;;;11.32;6.22;;;;;;;15.14;58.30;92909.50;5049544;28;20033;-75
2022/09/23 10:51:58;;;;;;;11.52;6.53;;;;;;;15.23;59.05;92908.78;5047939;28;20036;-75
2022/09/23 10:54:57;;;;;;;9.48;6.22;;;;;;;15.39;58.58;92909.91;5049590;28;20055;-75
2022/09/23 10:57:39;;;;;;;12.65;6.20;;;;;;;15.50;58.75;92911.19;5033228;28;20037;-75
2022/09/23 11:00:29;;;;;;;13.77;6.60;;;;;;;15.31;60.21;92908.03;5050690;28;20044;-75
2022/09/23 11:03:16;;;;;;;9.05;6.13;;;;;;;15.22;60.84;92912.47;5049732;28;20671;-74
2022/09/23 11:05:59;;;;;;;8.93;6.20;;;;;;;15.45;60.73;92910.56;5049825;28;20041;-75
2022/09/23 11:09:09;;;;;;;13.07;6.32;;;;;;;15.32;60.36;92906.97;5032929;28;20067;-74
2022/09/23 11:11:57;;;;;;;10.07;6.30;;;;;;;15.33;61.15;92908.50;5027077;28;20041;-75
2022/09/23 11:14:41;;;;;;;13.30;6.60;;;;;;;15.33;61.75;92904.03;5049757;28;20051;-75
2022/09/23 11:17:18;;;;;;;12.75;6.10;;;;;;;15.25;59.33;92906.63;5066059;28;20430;-75
2022/09/23 11:19:57;;;;;;;13.35;6.32;;;;;;;15.22;60.06;92907.22;5064381;28;20037;-75
2022/09/23 11:22:53;;;;;;;11.20;6.13;;;;;;;15.31;59.33;92897.47;5051020;28;20052;-75
2022/09/23 11:25:50;;;;;;;10.48;6.05;;;;;;;15.43;58.89;92892.41;5066802;28;20256;-79
2022/09/23 11:28:53;;;;;;;10.32;6.22;;;;;;;15.43;58.72;92895.03;5035566;28;20049;-75
2022/09/23 11:31:50;;;;;;;9.25;5.97;;;;;;;15.67;57.31;92893.84;5065512;28;20071;-75
2022/09/23 11:34:42;;;;;;;10.13;5.70;;;;;;;15.67;57.12;92894.66;5050695;28;20087;-75
2022/09/23 11:37:17;;;;;;;8.63;5.70;;;;;;;15.84;59.32;92883.38;5065647;28;20148;-75
2022/09/23 11:40:02;;;;;;;10.70;6.05;;;;;;;15.95;58.83;92874.06;5065689;28;20045;-75
2022/09/23 11:42:35;;;;;;;9.00;5.85;;;;;;;16.00;56.55;92881.06;5038267;28;20028;-75
2022/09/23 11:45:16;;;;;;;11.63;6.10;;;;;;;15.97;56.13;92866.63;5049268;28;20037;-74
2022/09/23 11:47:51;;;;;;;13.38;5.97;;;;;;;15.95;57.18;92873.28;5050276;28;20039;-75
2022/09/23 11:50:35;;;;;;;8.30;5.80;;;;;;;15.90;58.09;92870.81;5049944;28;20024;-75
2022/09/23 11:53:28;;;;;;;10.57;6.20;;;;;;;16.00;57.96;92871.25;5046832;28;20497;-75
2022/09/23 11:56:06;;;;;;;10.07;6.25;;;;;;;16.05;56.73;92869.56;5048552;28;20048;-74
2022/09/23 11:59:04;;;;;;;10.68;5.97;;;;;;;16.01;56.91;92864.13;5049547;28;20348;-74
2022/09/23 12:01:35;;;;;;;9.52;5.78;;;;;;;16.03;57.56;92860.09;5003635;28;20072;-75